Time,TemperatureF,DewpointF,PressureIn,WindDirection,WindDirectionDegrees,WindSpeedMPH,WindSpeedGustMPH,Humidity,HourlyPrecipIn,Conditions,Clouds,dailyrainin,SoftwareType,DateUTC
2013-04-21 00:00:00,20.1,12.6,30.00,SW,225,1.0,5.0,72,0.00,,,0.01,meteohub,2013-04-21 06:00:00,
2013-04-21 00:05:00,20.1,12.6,30.00,SW,225,1.0,5.0,72,0.00,,,0.00,meteohub,2013-04-21 06:05:00,
2013-04-21 00:10:00,20.3,13.1,30.01,SE,135,1.0,4.0,73,0.00,,,0.00,meteohub,2013-04-21 06:10:00,
2013-04-21 00:15:00,20.3,13.1,30.01,South,180,3.0,4.0,73,0.00,,,0.00,meteohub,2013-04-21 06:15:00,
2013-04-21 00:20:00,20.3,13.1,30.01,SE,135,1.0,5.0,73,0.00,,,0.00,meteohub,2013-04-21 06:20:00,
2013-04-21 00:25:00,20.5,13.5,30.01,West,270,2.0,5.0,74,0.00,,,0.00,meteohub,2013-04-21 06:25:00,
2013-04-21 00:31:00,20.8,13.8,30.01,SE,135,1.0,5.0,74,0.00,,,0.00,meteohub,2013-04-21 06:31:00,
2013-04-21 00:36:00,21.4,14.4,30.01,SE,135,2.0,5.0,74,0.00,,,0.00,meteohub,2013-04-21 06:36:00,
2013-04-21 00:41:00,21.9,14.9,30.01,NW,315,2.0,5.0,74,0.00,,,0.00,meteohub,2013-04-21 06:41:00,
2013-04-21 00:46:00,22.3,15.6,30.01,SE,135,2.0,5.0,75,0.00,,,0.00,meteohub,2013-04-21 06:46:00,
2013-04-21 00:51:00,22.5,15.8,30.01,West,270,1.0,4.0,75,0.00,,,0.00,meteohub,2013-04-21 06:51:00,
2013-04-21 00:56:00,22.6,16.2,30.01,NW,315,1.0,7.0,76,0.00,,,0.00,meteohub,2013-04-21 06:56:00,
2013-04-21 01:01:00,22.8,16.3,30.01,WNW,293,3.0,7.0,76,0.00,,,0.00,meteohub,2013-04-21 07:01:00,
2013-04-21 01:06:00,23.0,16.3,30.01,West,270,2.0,6.0,75,0.00,,,0.00,meteohub,2013-04-21 07:06:00,
2013-04-21 01:11:00,23.2,16.5,30.01,SE,135,2.0,6.0,75,0.00,,,0.00,meteohub,2013-04-21 07:11:00,
2013-04-21 01:16:00,23.2,16.7,30.01,SW,225,4.0,6.0,76,0.00,,,0.00,meteohub,2013-04-21 07:16:00,
2013-04-21 01:21:00,23.4,16.9,30.01,East,90,2.0,6.0,76,0.00,,,0.00,meteohub,2013-04-21 07:21:00,
2013-04-21 01:26:00,23.4,16.7,30.01,NW,315,4.0,4.0,75,0.00,,,0.00,meteohub,2013-04-21 07:26:00,
2013-04-21 01:31:00,23.4,16.7,30.01,West,270,2.0,8.0,75,0.00,,,0.00,meteohub,2013-04-21 07:31:00,
2013-04-21 01:36:00,23.4,16.7,30.01,West,270,2.0,8.0,75,0.00,,,0.00,meteohub,2013-04-21 07:36:00,
2013-04-21 01:41:00,23.4,16.7,30.01,NW,315,2.0,8.0,75,0.00,,,0.00,meteohub,2013-04-21 07:41:00,
2013-04-21 01:46:00,23.4,16.7,30.01,NW,315,3.0,3.0,75,0.00,,,0.00,meteohub,2013-04-21 07:46:00,
2013-04-21 01:51:00,23.4,16.7,30.01,West,270,2.0,5.0,75,0.00,,,0.00,meteohub,2013-04-21 07:51:00,
2013-04-21 01:57:00,23.4,16.7,30.01,NW,315,2.0,5.0,75,0.00,,,0.00,meteohub,2013-04-21 07:57:00,
2013-04-21 02:02:00,23.4,16.7,30.01,SW,225,0.0,5.0,75,0.00,,,0.00,meteohub,2013-04-21 08:02:00,
2013-04-21 02:07:00,23.4,16.7,30.01,SW,225,0.0,4.0,75,0.00,,,0.00,meteohub,2013-04-21 08:07:00,
2013-04-21 02:12:00,23.4,16.7,30.01,NW,315,1.0,4.0,75,0.00,,,0.00,meteohub,2013-04-21 08:12:00,
2013-04-21 02:17:00,23.4,16.7,30.01,NW,315,6.0,6.0,75,0.00,,,0.00,meteohub,2013-04-21 08:17:00,
2013-04-21 02:22:00,23.4,16.7,30.01,NW,315,3.0,6.0,75,0.00,,,0.00,meteohub,2013-04-21 08:22:00,
2013-04-21 02:27:00,23.4,16.7,30.00,NW,315,2.0,6.0,75,0.00,,,0.00,meteohub,2013-04-21 08:27:00,
2013-04-21 02:32:00,23.4,16.7,30.01,NW,315,2.0,6.0,75,0.00,,,0.00,meteohub,2013-04-21 08:32:00,
2013-04-21 02:37:00,23.4,16.7,30.01,South,180,2.0,4.0,75,0.00,,,0.00,meteohub,2013-04-21 08:37:00,
2013-04-21 02:42:00,23.2,16.5,30.01,NW,315,3.0,4.0,75,0.00,,,0.00,meteohub,2013-04-21 08:42:00,
2013-04-21 02:47:00,23.2,16.5,30.00,NW,315,2.0,4.0,75,0.00,,,0.00,meteohub,2013-04-21 08:47:00,
2013-04-21 02:52:00,23.2,16.2,30.00,NW,315,4.0,4.0,74,0.00,,,0.00,meteohub,2013-04-21 08:52:00,
2013-04-21 02:57:00,23.0,16.0,30.01,NW,315,7.0,7.0,74,0.00,,,0.00,meteohub,2013-04-21 08:57:00,
2013-04-21 03:02:00,23.0,16.0,30.01,SW,225,2.0,7.0,74,0.00,,,0.00,meteohub,2013-04-21 09:02:00,
2013-04-21 03:07:00,23.0,16.0,30.01,ENE,68,10.0,10.0,74,0.00,,,0.00,meteohub,2013-04-21 09:07:00,
2013-04-21 03:12:00,22.8,16.2,30.01,West,270,3.0,10.0,75,0.00,,,0.00,meteohub,2013-04-21 09:12:00,
2013-04-21 03:17:00,22.8,16.2,30.01,West,270,2.0,10.0,75,0.00,,,0.00,meteohub,2013-04-21 09:17:00,
2013-04-21 03:22:00,22.8,16.3,30.01,WSW,248,3.0,10.0,76,0.00,,,0.00,meteohub,2013-04-21 09:22:00,
2013-04-21 03:27:00,22.8,16.3,30.01,NW,315,4.0,8.0,76,0.00,,,0.00,meteohub,2013-04-21 09:27:00,
2013-04-21 03:32:00,22.6,16.2,30.01,SW,225,2.0,8.0,76,0.00,,,0.00,meteohub,2013-04-21 09:32:00,
2013-04-21 03:37:00,22.6,16.2,30.01,NW,315,4.0,8.0,76,0.00,,,0.00,meteohub,2013-04-21 09:37:00,
2013-04-21 03:42:00,22.6,16.2,30.01,WSW,248,4.0,7.0,76,0.00,,,0.00,meteohub,2013-04-21 09:42:00,
2013-04-21 03:47:00,22.8,16.3,30.01,NW,315,2.0,5.0,76,0.00,,,0.00,meteohub,2013-04-21 09:47:00,
2013-04-21 03:52:00,22.8,16.3,30.01,NW,315,8.0,8.0,76,0.00,,,0.00,meteohub,2013-04-21 09:52:00,
2013-04-21 03:57:00,22.8,16.3,30.01,NW,315,4.0,8.0,76,0.00,,,0.00,meteohub,2013-04-21 09:57:00,
2013-04-21 04:02:00,22.8,16.3,30.01,NW,315,2.0,8.0,76,0.00,,,0.00,meteohub,2013-04-21 10:02:00,
2013-04-21 04:07:00,22.8,16.3,30.01,NW,315,2.0,8.0,76,0.00,,,0.00,meteohub,2013-04-21 10:07:00,
2013-04-21 04:12:00,22.8,16.3,30.01,SW,225,5.0,7.0,76,0.00,,,0.00,meteohub,2013-04-21 10:12:00,
2013-04-21 04:17:00,22.6,16.2,30.01,NW,315,3.0,10.0,76,0.00,,,0.00,meteohub,2013-04-21 10:17:00,
2013-04-21 04:22:00,22.6,16.2,30.01,SE,135,1.0,10.0,76,0.00,,,0.00,meteohub,2013-04-21 10:22:00,
2013-04-21 04:27:00,22.6,16.2,30.01,East,90,4.0,6.0,76,0.00,,,0.00,meteohub,2013-04-21 10:27:00,
2013-04-21 04:32:00,22.5,16.0,30.01,ESE,113,6.0,6.0,76,0.00,,,0.00,meteohub,2013-04-21 10:32:00,
2013-04-21 04:37:00,22.5,16.0,30.01,SW,225,5.0,6.0,76,0.00,,,0.00,meteohub,2013-04-21 10:37:00,
2013-04-21 04:42:00,22.5,16.0,30.00,SE,135,4.0,7.0,76,0.00,,,0.00,meteohub,2013-04-21 10:42:00,
2013-04-21 04:47:00,22.3,15.8,30.01,NW,315,7.0,8.0,76,0.00,,,0.00,meteohub,2013-04-21 10:47:00,
2013-04-21 04:52:00,22.3,15.8,30.01,NW,315,6.0,8.0,76,0.00,,,0.00,meteohub,2013-04-21 10:52:00,
2013-04-21 04:57:00,22.1,15.4,30.01,NW,315,6.0,8.0,75,0.00,,,0.00,meteohub,2013-04-21 10:57:00,
2013-04-21 05:02:00,22.1,15.4,30.01,NW,315,4.0,7.0,75,0.00,,,0.00,meteohub,2013-04-21 11:02:00,
2013-04-21 05:07:00,22.1,15.4,30.01,WNW,293,2.0,7.0,75,0.00,,,0.00,meteohub,2013-04-21 11:07:00,
2013-04-21 05:12:00,22.1,15.6,30.01,West,270,8.0,8.0,76,0.00,,,0.00,meteohub,2013-04-21 11:12:00,
2013-04-21 05:17:00,22.1,15.6,30.01,WNW,293,9.0,9.0,76,0.00,,,0.00,meteohub,2013-04-21 11:17:00,
2013-04-21 05:22:00,22.1,15.6,30.01,West,270,3.0,9.0,76,0.00,,,0.00,meteohub,2013-04-21 11:22:00,
2013-04-21 05:27:00,21.9,15.4,30.01,North,0,8.0,9.0,76,0.00,,,0.00,meteohub,2013-04-21 11:27:00,
2013-04-21 05:32:00,21.9,15.4,30.01,West,270,4.0,9.0,76,0.00,,,0.00,meteohub,2013-04-21 11:32:00,
2013-04-21 05:37:00,21.9,15.4,30.01,West,270,6.0,8.0,76,0.00,,,0.00,meteohub,2013-04-21 11:37:00,
2013-04-21 05:42:00,21.7,15.3,30.01,SW,225,5.0,8.0,76,0.00,,,0.00,meteohub,2013-04-21 11:42:00,
2013-04-21 05:47:00,21.7,15.3,30.01,SW,225,2.0,8.0,76,0.00,,,0.00,meteohub,2013-04-21 11:47:00,
2013-04-21 05:52:00,21.7,15.3,30.01,SE,135,2.0,6.0,76,0.00,,,0.00,meteohub,2013-04-21 11:52:00,
2013-04-21 05:57:00,21.7,15.3,30.01,West,270,2.0,6.0,76,0.00,,,0.00,meteohub,2013-04-21 11:57:00,
2013-04-21 06:02:00,21.6,15.3,30.02,West,270,4.0,9.0,76,0.00,,,0.00,meteohub,2013-04-21 12:02:00,
2013-04-21 06:07:00,21.6,15.3,30.01,West,270,4.0,9.0,76,0.00,,,0.00,meteohub,2013-04-21 12:07:00,
2013-04-21 06:12:00,21.4,15.1,30.02,NW,315,4.0,9.0,76,0.00,,,0.00,meteohub,2013-04-21 12:12:00,
2013-04-21 06:17:00,21.4,14.7,30.02,SW,225,4.0,8.0,75,0.00,,,0.00,meteohub,2013-04-21 12:17:00,
2013-04-21 06:22:00,21.4,14.7,30.02,NW,315,2.0,8.0,75,0.00,,,0.00,meteohub,2013-04-21 12:22:00,
2013-04-21 06:27:00,21.4,14.7,30.02,NW,315,2.0,6.0,75,0.00,,,0.00,meteohub,2013-04-21 12:27:00,
2013-04-21 06:32:00,21.4,14.7,30.02,SW,225,1.0,6.0,75,0.00,,,0.00,meteohub,2013-04-21 12:32:00,
2013-04-21 06:37:00,21.6,14.9,30.02,West,270,2.0,4.0,75,0.00,,,0.00,meteohub,2013-04-21 12:37:00,
2013-04-21 06:42:00,21.6,14.9,30.03,West,270,4.0,4.0,75,0.00,,,0.00,meteohub,2013-04-21 12:42:00,
2013-04-21 06:47:00,21.6,14.9,30.03,West,270,2.0,5.0,75,0.00,,,0.00,meteohub,2013-04-21 12:47:00,
2013-04-21 06:52:00,21.9,15.3,30.02,West,270,3.0,5.0,75,0.00,,,0.00,meteohub,2013-04-21 12:52:00,
2013-04-21 06:57:00,21.9,15.3,30.03,NW,315,3.0,5.0,75,0.00,,,0.00,meteohub,2013-04-21 12:57:00,
2013-04-21 07:02:00,22.1,15.4,30.03,SW,225,4.0,4.0,75,0.00,,,0.00,meteohub,2013-04-21 13:02:00,
2013-04-21 07:07:00,22.5,15.8,30.03,West,270,3.0,4.0,75,0.00,,,0.00,meteohub,2013-04-21 13:07:00,
2013-04-21 07:12:00,22.8,16.2,30.03,SW,225,3.0,4.0,75,0.00,,,0.00,meteohub,2013-04-21 13:12:00,
2013-04-21 07:17:00,23.0,16.0,30.03,West,270,2.0,4.0,74,0.00,,,0.00,meteohub,2013-04-21 13:17:00,
2013-04-21 07:22:00,23.2,15.8,30.03,West,270,7.0,7.0,73,0.00,,,0.00,meteohub,2013-04-21 13:22:00,
2013-04-21 07:27:00,23.4,16.0,30.03,SW,225,1.0,7.0,73,0.00,,,0.00,meteohub,2013-04-21 13:27:00,
2013-04-21 07:32:00,23.5,15.8,30.03,SE,135,2.0,8.0,72,0.00,,,0.00,meteohub,2013-04-21 13:32:00,
2013-04-21 07:37:00,23.7,16.0,30.03,North,0,1.0,8.0,72,0.00,,,0.00,meteohub,2013-04-21 13:37:00,
2013-04-21 07:42:00,23.9,16.2,30.03,East,90,2.0,8.0,72,0.00,,,0.00,meteohub,2013-04-21 13:42:00,
2013-04-21 07:47:00,24.3,16.2,30.04,West,270,2.0,8.0,71,0.00,,,0.00,meteohub,2013-04-21 13:47:00,
2013-04-21 07:52:00,24.6,16.5,30.04,SW,225,3.0,8.0,71,0.00,,,0.00,meteohub,2013-04-21 13:52:00,
2013-04-21 07:57:00,24.8,16.3,30.04,West,270,3.0,5.0,70,0.00,,,0.00,meteohub,2013-04-21 13:57:00,
2013-04-21 08:02:00,25.0,16.5,30.04,North,0,2.0,7.0,70,0.00,,,0.00,meteohub,2013-04-21 14:02:00,
2013-04-21 08:07:00,25.0,16.5,30.04,North,0,2.0,7.0,70,0.00,,,0.00,meteohub,2013-04-21 14:07:00,
2013-04-21 08:12:00,26.2,17.4,30.03,North,0,3.0,7.0,69,0.00,,,0.00,meteohub,2013-04-21 14:12:00,
2013-04-21 08:17:00,26.6,17.4,30.04,SW,225,3.0,4.0,68,0.00,,,0.00,meteohub,2013-04-21 14:17:00,
2013-04-21 08:22:00,27.3,18.1,30.04,West,270,3.0,4.0,68,0.00,,,0.00,meteohub,2013-04-21 14:22:00,
2013-04-21 08:27:00,28.9,20.7,30.04,North,0,7.0,7.0,71,0.00,,,0.00,meteohub,2013-04-21 14:27:00,
2013-04-21 08:32:00,29.7,20.5,30.04,NW,315,7.0,8.0,68,0.00,,,0.00,meteohub,2013-04-21 14:32:00,
2013-04-21 08:37:00,30.4,19.9,30.04,West,270,5.0,8.0,65,0.00,,,0.00,meteohub,2013-04-21 14:37:00,
2013-04-21 08:42:00,30.7,19.9,30.04,North,0,2.0,8.0,64,0.00,,,0.00,meteohub,2013-04-21 14:42:00,
2013-04-21 08:47:00,30.0,19.0,30.04,NNW,338,8.0,8.0,63,0.00,,,0.00,meteohub,2013-04-21 14:47:00,
2013-04-21 08:52:00,28.9,18.0,30.03,NW,315,4.0,9.0,63,0.00,,,0.00,meteohub,2013-04-21 14:52:00,
2013-04-21 08:57:00,28.8,17.8,30.04,West,270,5.0,9.0,63,0.00,,,0.00,meteohub,2013-04-21 14:57:00,
2013-04-21 09:02:00,28.4,17.4,30.04,East,90,2.0,9.0,63,0.00,,,0.00,meteohub,2013-04-21 15:02:00,
2013-04-21 09:07:00,28.2,15.8,30.03,NW,315,4.0,7.0,59,0.00,,,0.00,meteohub,2013-04-21 15:07:00,
2013-04-21 09:12:00,28.2,15.8,30.03,NW,315,9.0,9.0,59,0.00,,,0.00,meteohub,2013-04-21 15:12:00,
2013-04-21 09:17:00,28.0,15.6,30.04,SE,135,2.0,9.0,59,0.00,,,0.00,meteohub,2013-04-21 15:17:00,
2013-04-21 09:22:00,28.2,15.8,30.03,SE,135,2.0,9.0,59,0.00,,,0.00,meteohub,2013-04-21 15:22:00,
2013-04-21 09:27:00,28.2,15.8,30.03,NW,315,4.0,9.0,59,0.00,,,0.00,meteohub,2013-04-21 15:27:00,
2013-04-21 09:32:00,28.4,17.4,30.04,NW,315,2.0,6.0,63,0.00,,,0.00,meteohub,2013-04-21 15:32:00,
2013-04-21 09:37:00,28.4,17.4,30.03,East,90,2.0,7.0,63,0.00,,,0.00,meteohub,2013-04-21 15:37:00,
2013-04-21 09:42:00,28.6,17.2,30.04,SE,135,3.0,8.0,62,0.00,,,0.00,meteohub,2013-04-21 15:42:00,
2013-04-21 09:47:00,29.1,17.8,30.03,NW,315,3.0,8.0,62,0.00,,,0.00,meteohub,2013-04-21 15:47:00,
2013-04-21 09:52:00,30.6,18.7,30.04,North,0,3.0,8.0,61,0.00,,,0.00,meteohub,2013-04-21 15:52:00,
2013-04-21 09:57:00,31.6,19.4,30.04,South,180,2.0,9.0,60,0.00,,,0.00,meteohub,2013-04-21 15:57:00,
2013-04-21 10:02:00,32.2,18.3,30.04,West,270,4.0,9.0,56,0.00,,,0.00,meteohub,2013-04-21 16:02:00,
2013-04-21 10:07:00,32.2,18.3,30.04,West,270,4.0,9.0,56,0.00,,,0.00,meteohub,2013-04-21 16:07:00,
2013-04-21 10:12:00,35.6,19.2,30.04,NW,315,6.0,6.0,51,0.00,,,0.00,meteohub,2013-04-21 16:12:00,
2013-04-21 10:17:00,37.8,22.6,30.04,East,90,4.0,7.0,54,0.00,,,0.00,meteohub,2013-04-21 16:17:00,
2013-04-21 10:22:00,37.0,16.7,30.04,NW,315,7.0,14.0,43,0.00,,,0.00,meteohub,2013-04-21 16:22:00,
2013-04-21 10:27:00,38.1,19.6,30.04,West,270,4.0,14.0,47,0.00,,,0.00,meteohub,2013-04-21 16:27:00,
2013-04-21 10:32:00,38.1,17.6,30.05,NE,45,4.0,14.0,43,0.00,,,0.00,meteohub,2013-04-21 16:32:00,
2013-04-21 10:37:00,38.1,17.6,30.05,NW,315,6.0,12.0,43,0.00,,,0.00,meteohub,2013-04-21 16:37:00,
2013-04-21 10:42:00,38.3,17.2,30.05,NW,315,7.0,12.0,42,0.00,,,0.00,meteohub,2013-04-21 16:42:00,
2013-04-21 10:47:00,39.7,18.5,30.05,SW,225,3.0,10.0,42,0.00,,,0.00,meteohub,2013-04-21 16:47:00,
2013-04-21 10:52:00,40.6,18.9,30.04,SW,225,2.0,7.0,41,0.01,,,0.01,meteohub,2013-04-21 16:52:00,
2013-04-21 10:57:00,42.8,20.1,30.04,West,270,2.0,7.0,40,0.01,,,0.01,meteohub,2013-04-21 16:57:00,
2013-04-21 11:02:00,43.2,18.0,30.05,South,180,4.0,6.0,36,0.01,,,0.01,meteohub,2013-04-21 17:02:00,
2013-04-21 11:07:00,42.8,18.3,30.05,West,270,5.0,8.0,37,0.01,,,0.01,meteohub,2013-04-21 17:07:00,
2013-04-21 11:12:00,43.3,16.9,30.04,West,270,7.0,8.0,34,0.01,,,0.01,meteohub,2013-04-21 17:12:00,
2013-04-21 11:17:00,42.3,14.5,30.04,ESE,113,4.0,11.0,32,0.04,,,0.04,meteohub,2013-04-21 17:17:00,
2013-04-21 11:22:00,42.3,15.3,30.04,South,180,2.0,11.0,33,0.04,,,0.04,meteohub,2013-04-21 17:22:00,
2013-04-21 11:27:00,42.8,15.6,30.04,South,180,4.0,9.0,33,0.06,,,0.06,meteohub,2013-04-21 17:27:00,
2013-04-21 11:32:00,42.4,14.7,30.04,NNE,23,2.0,8.0,32,0.06,,,0.06,meteohub,2013-04-21 17:32:00,
2013-04-21 11:37:00,41.9,15.6,30.04,South,180,3.0,8.0,34,0.06,,,0.06,meteohub,2013-04-21 17:37:00,
2013-04-21 11:42:00,42.1,15.1,30.04,WNW,293,3.0,8.0,33,0.06,,,0.06,meteohub,2013-04-21 17:42:00,
2013-04-21 11:47:00,42.3,15.3,30.04,SE,135,2.0,7.0,33,0.06,,,0.06,meteohub,2013-04-21 17:47:00,
2013-04-21 11:52:00,42.1,15.8,30.04,WSW,248,2.0,7.0,34,0.05,,,0.06,meteohub,2013-04-21 17:52:00,
2013-04-21 11:57:00,41.7,16.2,30.04,South,180,2.0,7.0,35,0.05,,,0.06,meteohub,2013-04-21 17:57:00,
2013-04-21 12:02:00,42.3,17.2,30.04,WNW,293,3.0,7.0,36,0.05,,,0.06,meteohub,2013-04-21 18:02:00,
2013-04-21 12:07:00,42.3,17.2,30.04,WNW,293,3.0,7.0,36,0.05,,,0.06,meteohub,2013-04-21 18:07:00,
2013-04-21 12:12:00,42.1,17.1,30.04,East,90,2.0,4.0,36,0.02,,,0.06,meteohub,2013-04-21 18:12:00,
2013-04-21 12:17:00,41.0,14.7,30.04,ESE,113,2.0,3.0,34,0.02,,,0.06,meteohub,2013-04-21 18:17:00,
2013-04-21 12:22:00,39.9,14.5,30.04,NE,45,2.0,3.0,35,0.01,,,0.06,meteohub,2013-04-21 18:22:00,
2013-04-21 12:27:00,40.3,16.7,30.04,NW,315,2.0,4.0,38,0.00,,,0.06,meteohub,2013-04-21 18:27:00,
2013-04-21 12:32:00,41.4,17.6,30.04,NW,315,5.0,5.0,38,0.01,,,0.07,meteohub,2013-04-21 18:32:00,
2013-04-21 12:37:00,43.2,17.4,30.03,East,90,2.0,6.0,35,0.01,,,0.07,meteohub,2013-04-21 18:37:00,
2013-04-21 12:42:00,42.1,12.9,30.03,West,270,2.0,6.0,30,0.01,,,0.07,meteohub,2013-04-21 18:42:00,
2013-04-21 12:47:00,43.7,15.8,30.04,NW,315,5.0,6.0,32,0.01,,,0.07,meteohub,2013-04-21 18:47:00,
2013-04-21 12:52:00,44.2,16.9,30.04,SW,225,6.0,10.0,33,0.01,,,0.07,meteohub,2013-04-21 18:52:00,
2013-04-21 12:57:00,46.0,17.8,30.04,NW,315,4.0,10.0,32,0.01,,,0.07,meteohub,2013-04-21 18:57:00,
2013-04-21 13:02:00,46.6,16.9,30.03,NE,45,5.0,10.0,30,0.01,,,0.07,meteohub,2013-04-21 19:02:00,
2013-04-21 13:07:00,47.3,17.4,30.03,ESE,113,5.0,9.0,30,0.01,,,0.07,meteohub,2013-04-21 19:07:00,
2013-04-21 13:12:00,47.8,16.3,30.03,SW,225,6.0,9.0,28,0.01,,,0.07,meteohub,2013-04-21 19:12:00,
2013-04-21 13:17:00,48.2,14.9,30.03,NW,315,4.0,9.0,26,0.01,,,0.07,meteohub,2013-04-21 19:17:00,
2013-04-21 13:22:00,47.7,15.3,30.03,WSW,248,3.0,9.0,27,0.01,,,0.07,meteohub,2013-04-21 19:22:00,
2013-04-21 13:27:00,47.8,13.6,30.02,SE,135,2.0,9.0,25,0.01,,,0.07,meteohub,2013-04-21 19:27:00,
2013-04-21 13:32:00,48.9,16.3,30.02,North,0,4.0,11.0,27,0.00,,,0.07,meteohub,2013-04-21 19:32:00,
2013-04-21 13:37:00,49.6,17.1,30.02,NW,315,2.0,14.0,27,0.00,,,0.07,meteohub,2013-04-21 19:37:00,
2013-04-21 13:42:00,51.3,17.6,30.02,NW,315,7.0,14.0,26,0.00,,,0.07,meteohub,2013-04-21 19:42:00,
2013-04-21 13:47:00,50.9,16.3,30.03,SE,135,12.0,12.0,25,0.00,,,0.07,meteohub,2013-04-21 19:47:00,
2013-04-21 13:52:00,50.2,13.8,30.03,North,0,5.0,12.0,23,0.00,,,0.07,meteohub,2013-04-21 19:52:00,
2013-04-21 13:57:00,48.7,12.6,30.02,WNW,293,13.0,13.0,23,0.00,,,0.07,meteohub,2013-04-21 19:57:00,
2013-04-21 14:02:00,47.3,12.4,30.03,West,270,8.0,13.0,24,0.00,,,0.07,meteohub,2013-04-21 20:02:00,
2013-04-21 14:07:00,47.3,12.4,30.03,West,270,8.0,13.0,24,0.00,,,0.07,meteohub,2013-04-21 20:07:00,
2013-04-21 14:12:00,47.7,13.5,30.02,West,270,3.0,13.0,25,0.00,,,0.07,meteohub,2013-04-21 20:12:00,
2013-04-21 14:17:00,47.3,14.2,30.02,WNW,293,9.0,9.0,26,0.00,,,0.07,meteohub,2013-04-21 20:17:00,
2013-04-21 14:22:00,44.8,9.1,30.03,NW,315,11.0,11.0,23,0.00,,,0.07,meteohub,2013-04-21 20:22:00,
2013-04-21 14:27:00,44.1,10.4,30.03,NW,315,12.0,12.0,25,0.00,,,0.07,meteohub,2013-04-21 20:27:00,
2013-04-21 14:32:00,43.3,9.9,30.02,East,90,2.0,12.0,25,0.00,,,0.07,meteohub,2013-04-21 20:32:00,
2013-04-21 14:37:00,44.8,11.1,30.03,West,270,5.0,12.0,25,0.00,,,0.07,meteohub,2013-04-21 20:37:00,
2013-04-21 14:42:00,44.1,10.4,30.03,East,90,4.0,13.0,25,0.00,,,0.07,meteohub,2013-04-21 20:42:00,
2013-04-21 14:47:00,43.2,9.7,30.03,NW,315,3.0,13.0,25,0.00,,,0.07,meteohub,2013-04-21 20:47:00,
2013-04-21 14:52:00,42.6,11.8,30.02,NW,315,4.0,13.0,28,0.00,,,0.07,meteohub,2013-04-21 20:52:00,
2013-04-21 14:57:00,43.0,12.9,30.03,West,270,8.0,12.0,29,0.00,,,0.07,meteohub,2013-04-21 20:57:00,
2013-04-21 15:02:00,41.9,11.1,30.03,SW,225,14.0,14.0,28,0.00,,,0.07,meteohub,2013-04-21 21:02:00,
2013-04-21 15:07:00,40.6,10.9,30.03,NW,315,11.0,14.0,29,0.00,,,0.07,meteohub,2013-04-21 21:07:00,
2013-04-21 15:12:00,39.4,11.3,30.03,WNW,293,5.0,14.0,31,0.00,,,0.07,meteohub,2013-04-21 21:12:00,
2013-04-21 15:17:00,39.6,12.7,30.03,NW,315,10.0,14.0,33,0.00,,,0.07,meteohub,2013-04-21 21:17:00,
2013-04-21 15:22:00,39.6,14.2,30.02,NW,315,11.0,13.0,35,0.00,,,0.07,meteohub,2013-04-21 21:22:00,
2013-04-21 15:27:00,39.0,13.1,30.02,SE,135,4.0,11.0,34,0.00,,,0.07,meteohub,2013-04-21 21:27:00,
2013-04-21 15:32:00,38.3,11.7,30.02,WNW,293,5.0,11.0,33,0.00,,,0.07,meteohub,2013-04-21 21:32:00,
2013-04-21 15:37:00,38.1,12.2,30.02,WNW,293,8.0,15.0,34,0.00,,,0.07,meteohub,2013-04-21 21:37:00,
2013-04-21 15:42:00,37.9,12.0,30.02,NNW,338,4.0,15.0,34,0.00,,,0.07,meteohub,2013-04-21 21:42:00,
2013-04-21 15:47:00,38.3,13.6,30.02,NE,45,9.0,15.0,36,0.00,,,0.07,meteohub,2013-04-21 21:47:00,
2013-04-21 15:52:00,37.9,13.3,30.02,NE,45,2.0,10.0,36,0.00,,,0.07,meteohub,2013-04-21 21:52:00,
2013-04-21 15:57:00,37.9,14.5,30.02,NE,45,16.0,16.0,38,0.00,,,0.07,meteohub,2013-04-21 21:57:00,
2013-04-21 16:02:00,37.6,13.6,30.03,West,270,13.0,16.0,37,0.00,,,0.07,meteohub,2013-04-21 22:02:00,
2013-04-21 16:07:00,37.6,13.6,30.03,West,270,13.0,16.0,37,0.00,,,0.07,meteohub,2013-04-21 22:07:00,
2013-04-21 16:12:00,37.4,14.2,30.03,SE,135,4.0,16.0,38,0.00,,,0.07,meteohub,2013-04-21 22:12:00,
2013-04-21 16:17:00,37.4,15.8,30.04,North,0,6.0,13.0,41,0.00,,,0.07,meteohub,2013-04-21 22:17:00,
2013-04-21 16:22:00,37.0,12.6,30.03,South,180,6.0,13.0,36,0.00,,,0.07,meteohub,2013-04-21 22:22:00,
2013-04-21 16:27:00,36.5,10.0,30.04,East,90,4.0,11.0,33,0.00,,,0.07,meteohub,2013-04-21 22:27:00,
2013-04-21 16:32:00,36.0,9.0,30.04,NW,315,7.0,11.0,32,0.00,,,0.07,meteohub,2013-04-21 22:32:00,
2013-04-21 16:37:00,35.2,10.9,30.04,SW,225,5.0,11.0,36,0.00,,,0.07,meteohub,2013-04-21 22:37:00,
2013-04-21 16:42:00,35.1,12.6,30.03,NW,315,2.0,11.0,39,0.00,,,0.07,meteohub,2013-04-21 22:42:00,
2013-04-21 16:47:00,35.1,12.6,30.04,SE,135,5.0,11.0,39,0.00,,,0.07,meteohub,2013-04-21 22:47:00,
2013-04-21 16:52:00,34.5,12.7,30.04,NW,315,4.0,11.0,40,0.00,,,0.07,meteohub,2013-04-21 22:52:00,
2013-04-21 16:57:00,34.2,13.5,30.04,NW,315,5.0,11.0,42,0.00,,,0.07,meteohub,2013-04-21 22:57:00,
2013-04-21 17:02:00,33.4,15.4,30.03,SE,135,4.0,13.0,47,0.00,,,0.07,meteohub,2013-04-21 23:02:00,
2013-04-21 17:07:00,33.1,16.5,30.03,East,90,2.0,13.0,50,0.00,,,0.07,meteohub,2013-04-21 23:07:00,
2013-04-21 17:12:00,32.9,16.7,30.02,SE,135,2.0,8.0,51,0.00,,,0.07,meteohub,2013-04-21 23:12:00,
2013-04-21 17:17:00,33.4,17.8,30.02,East,90,0.0,7.0,52,0.00,,,0.07,meteohub,2013-04-21 23:17:00,
2013-04-21 17:22:00,33.8,17.1,30.02,SW,225,2.0,7.0,50,0.00,,,0.07,meteohub,2013-04-21 23:22:00,
2013-04-21 17:27:00,33.6,16.9,30.02,SE,135,2.0,2.0,50,0.00,,,0.07,meteohub,2013-04-21 23:27:00,
2013-04-21 17:32:00,33.4,16.9,30.03,NE,45,4.0,4.0,50,0.00,,,0.07,meteohub,2013-04-21 23:32:00,
2013-04-21 17:37:00,33.4,16.9,30.03,SE,135,4.0,4.0,50,0.00,,,0.07,meteohub,2013-04-21 23:37:00,
2013-04-21 17:42:00,33.3,15.6,30.04,West,270,1.0,6.0,48,0.00,,,0.07,meteohub,2013-04-21 23:42:00,
2013-04-21 17:47:00,33.1,15.4,30.04,West,270,2.0,6.0,48,0.00,,,0.07,meteohub,2013-04-21 23:47:00,
2013-04-21 17:52:00,32.5,16.0,30.04,NW,315,2.0,6.0,50,0.00,,,0.07,meteohub,2013-04-21 23:52:00,
2013-04-21 17:57:00,32.0,16.9,30.04,South,180,1.0,6.0,53,0.00,,,0.07,meteohub,2013-04-21 23:57:00,
2013-04-21 18:02:00,32.2,18.3,30.03,West,270,3.0,6.0,56,0.00,,,0.07,meteohub,2013-04-22 00:02:00,
2013-04-21 18:07:00,32.2,18.3,30.03,West,270,3.0,4.0,56,0.00,,,0.07,meteohub,2013-04-22 00:07:00,
2013-04-21 18:12:00,32.9,18.9,30.03,NW,315,1.0,4.0,56,0.00,,,0.07,meteohub,2013-04-22 00:12:00,
2013-04-21 18:17:00,32.9,18.5,30.03,East,90,0.0,3.0,55,0.00,,,0.07,meteohub,2013-04-22 00:17:00,
2013-04-21 18:22:00,32.9,18.5,30.03,NW,315,3.0,3.0,55,0.00,,,0.07,meteohub,2013-04-22 00:22:00,
2013-04-21 18:27:00,32.7,18.7,30.03,SW,225,0.0,3.0,56,0.00,,,0.07,meteohub,2013-04-22 00:27:00,
2013-04-21 18:32:00,32.5,19.0,30.03,South,180,0.0,3.0,57,0.00,,,0.07,meteohub,2013-04-22 00:32:00,
2013-04-21 18:37:00,32.2,18.7,30.03,West,270,0.0,3.0,57,0.00,,,0.07,meteohub,2013-04-22 00:37:00,
2013-04-21 18:42:00,32.0,18.5,30.04,NW,315,2.0,2.0,57,0.00,,,0.07,meteohub,2013-04-22 00:42:00,
2013-04-21 18:47:00,31.8,19.0,30.04,SE,135,1.0,2.0,59,0.00,,,0.07,meteohub,2013-04-22 00:47:00,
2013-04-21 18:52:00,31.6,19.4,30.04,West,270,0.0,2.0,60,0.00,,,0.07,meteohub,2013-04-22 00:52:00,
2013-04-21 18:57:00,31.5,19.6,30.04,NW,315,2.0,2.0,61,0.00,,,0.07,meteohub,2013-04-22 00:57:00,
2013-04-21 19:02:00,31.3,19.4,30.04,NW,315,4.0,4.0,61,0.00,,,0.07,meteohub,2013-04-22 01:02:00,
2013-04-21 19:07:00,31.1,18.9,30.04,SE,135,0.0,4.0,60,0.00,,,0.07,meteohub,2013-04-22 01:07:00,
2013-04-21 19:12:00,30.9,18.7,30.03,North,0,0.0,4.0,60,0.00,,,0.07,meteohub,2013-04-22 01:12:00,
2013-04-21 19:17:00,30.9,19.0,30.03,South,180,1.0,4.0,61,0.00,,,0.07,meteohub,2013-04-22 01:17:00,
2013-04-21 19:22:00,30.9,19.0,30.03,SW,225,1.0,2.0,61,0.00,,,0.07,meteohub,2013-04-22 01:22:00,
2013-04-21 19:27:00,30.7,18.9,30.03,West,270,1.0,2.0,61,0.00,,,0.07,meteohub,2013-04-22 01:27:00,
2013-04-21 19:32:00,30.6,18.7,30.03,West,270,1.0,2.0,61,0.00,,,0.07,meteohub,2013-04-22 01:32:00,
2013-04-21 19:37:00,30.4,18.5,30.04,NW,315,2.0,2.0,61,0.00,,,0.07,meteohub,2013-04-22 01:37:00,
2013-04-21 19:42:00,30.4,18.9,30.04,SE,135,0.0,2.0,62,0.00,,,0.07,meteohub,2013-04-22 01:42:00,
2013-04-21 19:47:00,30.0,19.0,30.04,SE,135,2.0,2.0,63,0.00,,,0.07,meteohub,2013-04-22 01:47:00,
2013-04-21 19:52:00,29.8,18.9,30.04,SE,135,1.0,4.0,63,0.00,,,0.07,meteohub,2013-04-22 01:52:00,
2013-04-21 19:57:00,29.7,19.0,30.04,SE,135,0.0,4.0,64,0.00,,,0.07,meteohub,2013-04-22 01:57:00,
2013-04-21 20:02:00,29.5,18.9,30.04,SE,135,2.0,4.0,64,0.00,,,0.07,meteohub,2013-04-22 02:02:00,
2013-04-21 20:07:00,29.5,18.9,30.04,SE,135,2.0,2.0,64,0.00,,,0.07,meteohub,2013-04-22 02:07:00,
2013-04-21 20:12:00,29.1,18.9,30.03,SE,135,0.0,2.0,65,0.00,,,0.07,meteohub,2013-04-22 02:12:00,
2013-04-21 20:17:00,29.1,18.9,30.03,SE,135,1.0,2.0,65,0.00,,,0.07,meteohub,2013-04-22 02:17:00,
2013-04-21 20:22:00,28.9,18.7,30.03,SE,135,0.0,2.0,65,0.00,,,0.07,meteohub,2013-04-22 02:22:00,
2013-04-21 20:27:00,28.8,18.5,30.03,SE,135,0.0,2.0,65,0.00,,,0.07,meteohub,2013-04-22 02:27:00,
2013-04-21 20:32:00,28.6,18.3,30.03,East,90,0.0,3.0,65,0.00,,,0.07,meteohub,2013-04-22 02:32:00,
2013-04-21 20:37:00,28.4,18.5,30.03,SE,135,0.0,3.0,66,0.00,,,0.07,meteohub,2013-04-22 02:37:00,
2013-04-21 20:42:00,28.4,18.5,30.03,SE,135,2.0,3.0,66,0.00,,,0.07,meteohub,2013-04-22 02:42:00,
2013-04-21 20:47:00,28.2,16.9,30.03,SSE,158,2.0,2.0,62,0.00,,,0.07,meteohub,2013-04-22 02:47:00,
2013-04-21 20:52:00,28.2,16.9,30.03,SE,135,1.0,2.0,62,0.00,,,0.07,meteohub,2013-04-22 02:52:00,
2013-04-21 20:57:00,28.2,16.9,30.03,SE,135,1.0,4.0,62,0.00,,,0.07,meteohub,2013-04-22 02:57:00,
2013-04-21 21:02:00,28.2,16.9,30.02,SE,135,2.0,4.0,62,0.00,,,0.07,meteohub,2013-04-22 03:02:00,
2013-04-21 21:07:00,28.0,16.7,30.03,SE,135,0.0,4.0,62,0.00,,,0.07,meteohub,2013-04-22 03:07:00,
2013-04-21 21:12:00,28.0,16.7,30.03,SE,135,2.0,4.0,62,0.00,,,0.07,meteohub,2013-04-22 03:12:00,
2013-04-21 21:17:00,27.9,16.5,30.03,South,180,0.0,4.0,62,0.00,,,0.07,meteohub,2013-04-22 03:17:00,
2013-04-21 21:22:00,27.9,16.5,30.03,SE,135,0.0,4.0,62,0.00,,,0.07,meteohub,2013-04-22 03:22:00,
2013-04-21 21:27:00,27.9,16.5,30.03,SE,135,2.0,4.0,62,0.00,,,0.07,meteohub,2013-04-22 03:27:00,
2013-04-21 21:32:00,27.7,16.3,30.03,SE,135,3.0,4.0,62,0.00,,,0.07,meteohub,2013-04-22 03:32:00,
2013-04-21 21:37:00,27.7,16.3,30.03,East,90,0.0,3.0,62,0.00,,,0.07,meteohub,2013-04-22 03:37:00,
2013-04-21 21:42:00,27.7,16.3,30.03,SE,135,2.0,3.0,62,0.00,,,0.07,meteohub,2013-04-22 03:42:00,
2013-04-21 21:47:00,27.7,16.0,30.03,SE,135,1.0,3.0,61,0.00,,,0.07,meteohub,2013-04-22 03:47:00,
2013-04-21 21:52:00,27.7,16.0,30.04,SE,135,2.0,3.0,61,0.00,,,0.07,meteohub,2013-04-22 03:52:00,
2013-04-21 21:57:00,27.7,16.3,30.03,South,180,4.0,4.0,62,0.00,,,0.07,meteohub,2013-04-22 03:57:00,
2013-04-21 22:01:00,27.9,16.5,30.03,NW,315,4.0,4.0,62,0.00,,,0.07,meteohub,2013-04-22 04:01:00,
2013-04-21 22:03:00,27.9,16.5,30.03,NW,315,4.0,4.0,62,0.00,,,0.07,meteohub,2013-04-22 04:03:00,
2013-04-21 22:04:00,27.9,16.5,30.03,NW,315,4.0,4.0,62,0.00,,,0.07,meteohub,2013-04-22 04:04:00,
2013-04-21 22:09:00,28.0,16.7,30.03,SE,135,0.0,4.0,62,0.00,,,0.07,meteohub,2013-04-22 04:09:00,
2013-04-21 22:14:00,28.0,17.1,30.03,SE,135,4.0,4.0,63,0.00,,,0.07,meteohub,2013-04-22 04:14:00,
2013-04-21 22:19:00,28.0,17.1,30.03,SE,135,0.0,4.0,63,0.00,,,0.07,meteohub,2013-04-22 04:19:00,
2013-04-21 22:24:00,28.2,17.6,30.03,SE,135,2.0,4.0,64,0.00,,,0.07,meteohub,2013-04-22 04:24:00,
2013-04-21 22:29:00,28.2,17.6,30.03,SE,135,1.0,4.0,64,0.00,,,0.07,meteohub,2013-04-22 04:29:00,
2013-04-21 22:34:00,28.0,17.4,30.03,SE,135,3.0,3.0,64,0.00,,,0.07,meteohub,2013-04-22 04:34:00,
2013-04-21 22:39:00,28.0,17.4,30.03,East,90,2.0,3.0,64,0.00,,,0.07,meteohub,2013-04-22 04:39:00,
2013-04-21 22:44:00,27.9,17.2,30.03,SE,135,2.0,3.0,64,0.00,,,0.07,meteohub,2013-04-22 04:44:00,
2013-04-21 22:50:00,27.9,17.2,30.03,East,90,0.0,3.0,64,0.00,,,0.07,meteohub,2013-04-22 04:50:00,
2013-04-21 22:55:00,28.0,17.4,30.02,SE,135,3.0,3.0,64,0.00,,,0.07,meteohub,2013-04-22 04:55:00,
2013-04-21 23:00:00,28.0,17.4,30.02,SE,135,2.0,2.0,64,0.00,,,0.07,meteohub,2013-04-22 05:00:00,
2013-04-21 23:05:00,28.0,17.1,30.02,East,90,4.0,4.0,63,0.00,,,0.07,meteohub,2013-04-22 05:05:00,
2013-04-21 23:10:00,28.0,17.1,30.01,NW,315,1.0,3.0,63,0.00,,,0.07,meteohub,2013-04-22 05:10:00,
2013-04-21 23:15:00,28.0,16.7,30.01,SE,135,1.0,4.0,62,0.00,,,0.07,meteohub,2013-04-22 05:15:00,
2013-04-21 23:20:00,28.0,16.7,30.01,SW,225,2.0,4.0,62,0.00,,,0.07,meteohub,2013-04-22 05:20:00,
2013-04-21 23:25:00,28.2,16.9,30.01,SE,135,2.0,3.0,62,0.00,,,0.07,meteohub,2013-04-22 05:25:00,
2013-04-21 23:30:00,28.4,17.4,30.01,SE,135,4.0,4.0,63,0.00,,,0.07,meteohub,2013-04-22 05:30:00,
2013-04-21 23:35:00,28.9,17.6,30.01,SW,225,1.0,9.0,62,0.00,,,0.07,meteohub,2013-04-22 05:35:00,
2013-04-21 23:40:00,29.1,16.9,30.00,ESE,113,4.0,9.0,60,0.00,,,0.07,meteohub,2013-04-22 05:40:00,
2013-04-21 23:45:00,29.1,16.9,30.00,NE,45,2.0,4.0,60,0.00,,,0.07,meteohub,2013-04-22 05:45:00,
2013-04-21 23:50:00,29.1,16.9,30.00,East,90,2.0,4.0,60,0.00,,,0.07,meteohub,2013-04-22 05:50:00,
2013-04-21 23:55:00,29.1,17.4,30.00,South,180,3.0,4.0,61,0.00,,,0.07,meteohub,2013-04-22 05:55:00,